createdAt,value
2023-05-25T00:02:48.099Z,14.00
2023-05-25T00:07:52.762Z,16.10
2023-05-25T00:12:58.703Z,17.00
2023-05-25T00:18:04.057Z,20.10
2023-05-25T00:23:08.904Z,17.20
2023-05-25T00:28:13.840Z,19.50
2023-05-25T00:33:17.657Z,17.80
2023-05-25T00:38:22.635Z,16.90
2023-05-25T00:43:27.687Z,18.00
2023-05-25T00:48:33.112Z,22.30
2023-05-25T00:53:40.384Z,20.80
2023-05-25T00:58:48.517Z,20.60
2023-05-25T01:03:57.124Z,17.80
2023-05-25T01:09:05.693Z,25.10
2023-05-25T01:14:12.109Z,17.90
2023-05-25T01:19:17.958Z,18.60
2023-05-25T01:24:34.922Z,19.10
2023-05-25T01:29:43.272Z,20.50
2023-05-25T01:34:49.701Z,18.00
2023-05-25T01:39:54.215Z,20.80
2023-05-25T01:45:00.404Z,18.60
2023-05-25T01:50:29.828Z,22.30
2023-05-25T01:55:40.316Z,20.50
2023-05-25T02:00:47.806Z,21.10
2023-05-25T02:05:52.861Z,28.30
2023-05-25T02:10:57.101Z,21.90
2023-05-25T02:16:02.858Z,27.80
2023-05-25T02:21:07.409Z,21.30
2023-05-25T02:26:12.071Z,26.80
2023-05-25T02:31:16.447Z,30.20
2023-05-25T02:36:22.200Z,22.90
2023-05-25T02:41:28.066Z,30.90
2023-05-25T02:46:34.362Z,24.50
2023-05-25T02:51:40.344Z,27.70
2023-05-25T02:56:45.326Z,37.00
2023-05-25T03:01:48.999Z,20.50
2023-05-25T03:07:11.302Z,32.80
2023-05-25T03:12:15.956Z,26.90
2023-05-25T03:17:20.647Z,21.60
2023-05-25T03:22:25.152Z,30.30
2023-05-25T03:27:29.940Z,28.30
2023-05-25T03:32:34.733Z,30.80
2023-05-25T03:37:38.865Z,26.50
2023-05-25T03:42:43.381Z,29.40
2023-05-25T03:47:48.809Z,24.80
2023-05-25T03:52:54.530Z,26.20
2023-05-25T03:57:59.251Z,22.70
2023-05-25T04:03:05.679Z,30.30
2023-05-25T04:08:10.349Z,22.10
2023-05-25T04:13:15.636Z,25.90
2023-05-25T04:18:21.142Z,21.30
2023-05-25T04:23:25.207Z,24.00
2023-05-25T04:28:29.484Z,25.30
2023-05-25T04:33:34.931Z,22.20
2023-05-25T04:38:40.558Z,18.90
2023-05-25T04:44:04.780Z,14.50
2023-05-25T04:49:10.960Z,19.80
2023-05-25T04:54:14.665Z,19.60
2023-05-25T04:59:20.131Z,15.30
2023-05-25T05:04:25.066Z,13.00
2023-05-25T05:09:30.209Z,16.80
2023-05-25T05:14:35.972Z,15.60
2023-05-25T05:19:39.820Z,15.50
2023-05-25T05:24:45.119Z,16.20
2023-05-25T05:29:49.996Z,14.90
2023-05-25T05:34:54.732Z,12.50
2023-05-25T05:40:01.794Z,12.50
2023-05-25T05:45:07.094Z,15.60
2023-05-25T05:50:12.016Z,21.70
2023-05-25T05:55:16.677Z,17.40
2023-05-25T06:00:22.663Z,10.60
2023-05-25T06:05:28.036Z,14.90
2023-05-25T06:10:33.399Z,11.30
2023-05-25T06:15:38.380Z,10.60
2023-05-25T06:20:43.274Z,9.10
2023-05-25T06:25:48.183Z,11.30
2023-05-25T06:30:51.978Z,11.00
2023-05-25T06:36:00.854Z,14.00
2023-05-25T06:41:06.656Z,11.30
2023-05-25T06:46:12.501Z,12.60
2023-05-25T06:51:17.952Z,12.40
2023-05-25T06:56:23.550Z,11.40
2023-05-25T07:01:28.763Z,13.10
2023-05-25T07:06:34.490Z,13.20
2023-05-25T07:11:39.114Z,14.60
2023-05-25T07:16:45.830Z,12.80
2023-05-25T07:21:49.574Z,12.40
2023-05-25T07:26:54.492Z,10.80
2023-05-25T07:31:59.675Z,11.60
2023-05-25T07:37:04.632Z,13.00
2023-05-25T07:42:10.290Z,11.00
2023-05-25T07:47:15.984Z,12.30
2023-05-25T07:52:21.172Z,9.50
2023-05-25T07:57:25.935Z,17.50
2023-05-25T08:02:30.543Z,8.50
2023-05-25T08:07:38.629Z,12.90
2023-05-25T08:12:49.705Z,9.40
2023-05-25T08:17:57.306Z,7.20
2023-05-25T08:23:03.437Z,12.70
2023-05-25T08:28:08.802Z,7.80
2023-05-25T08:33:14.005Z,11.30
2023-05-25T08:38:18.514Z,10.90
2023-05-25T08:43:23.863Z,11.80
2023-05-25T08:48:41.106Z,10.70
2023-05-25T08:53:47.503Z,8.40
2023-05-25T08:59:04.826Z,10.00
2023-05-25T09:04:15.656Z,10.50
2023-05-25T09:09:21.268Z,9.80
2023-05-25T09:14:27.254Z,10.20
2023-05-25T09:19:31.949Z,11.00
2023-05-25T09:24:37.330Z,10.80
2023-05-25T09:29:41.898Z,11.00
2023-05-25T09:44:14.588Z,7.70
2023-05-25T09:49:17.637Z,11.70
2023-05-25T09:54:27.738Z,8.90
2023-05-25T09:59:31.965Z,8.90
2023-05-25T10:04:36.824Z,11.80
2023-05-25T10:09:41.711Z,8.60
2023-05-25T10:14:50.628Z,12.30
2023-05-25T10:19:58.764Z,14.60
2023-05-25T10:25:23.637Z,7.70
2023-05-25T10:30:30.166Z,12.20
2023-05-25T10:35:46.977Z,7.00
2023-05-25T10:41:01.020Z,8.90
2023-05-25T10:46:07.031Z,7.40
2023-05-25T10:51:12.072Z,14.60
2023-05-25T10:56:15.334Z,8.30
2023-05-25T11:01:18.369Z,8.80
2023-05-25T11:06:45.419Z,8.60
2023-05-25T11:11:49.615Z,10.90
2023-05-25T11:17:15.708Z,7.80
2023-05-25T11:22:33.451Z,10.80
2023-05-25T11:27:46.754Z,7.30
2023-05-25T11:32:50.783Z,10.30
2023-05-25T11:37:55.699Z,7.50
2023-05-25T11:43:01.067Z,7.30
2023-05-25T11:48:06.181Z,8.00
2023-05-25T11:53:10.393Z,9.60
2023-05-25T11:58:12.952Z,8.30
2023-05-25T12:03:32.634Z,7.90
2023-05-25T12:08:36.276Z,8.40
2023-05-25T12:13:41.148Z,6.90
2023-05-25T12:18:44.548Z,8.60
2023-05-25T12:23:47.828Z,8.00
2023-05-25T12:29:09.963Z,7.90
2023-05-25T12:34:15.296Z,7.80
2023-05-25T12:39:30.647Z,8.30
2023-05-25T12:44:35.026Z,11.00
2023-05-25T12:49:39.984Z,10.90
2023-05-25T12:54:48.681Z,7.60
2023-05-25T12:59:56.620Z,15.00
2023-05-25T13:05:01.562Z,8.30
2023-05-25T13:10:06.157Z,9.00
2023-05-25T13:15:10.126Z,8.00
2023-05-25T13:20:17.821Z,10.40
2023-05-25T13:25:22.649Z,8.80
2023-05-25T13:30:28.036Z,9.50
2023-05-25T13:35:37.590Z,14.00
2023-05-25T13:40:40.808Z,10.00
2023-05-25T13:45:44.790Z,14.50
2023-05-25T13:50:49.583Z,8.90
2023-05-25T13:55:55.229Z,7.90
2023-05-25T14:00:58.463Z,19.40
2023-05-25T14:06:02.688Z,9.20
2023-05-25T14:11:07.651Z,10.40
2023-05-25T14:16:11.948Z,6.90
2023-05-25T14:21:17.086Z,8.70
2023-05-25T14:26:21.819Z,8.30
2023-05-25T14:31:24.687Z,7.60
2023-05-25T14:36:28.666Z,6.40
2023-05-25T14:41:34.329Z,9.40
2023-05-25T14:46:36.527Z,7.40
2023-05-25T14:51:39.480Z,7.10
2023-05-25T14:56:43.271Z,11.10
2023-05-25T15:01:50.547Z,9.70
2023-05-25T15:06:53.237Z,9.00
2023-05-25T15:11:55.999Z,10.00
2023-05-25T15:16:58.911Z,7.30
2023-05-25T15:22:02.699Z,5.70
2023-05-25T15:27:06.822Z,7.50
2023-05-25T15:32:13.451Z,11.60
2023-05-25T15:37:17.367Z,6.60
2023-05-25T15:42:22.319Z,7.40
2023-05-25T15:52:30.458Z,6.60
2023-05-25T15:57:35.849Z,6.80
2023-05-25T16:02:45.376Z,7.80
2023-05-25T16:07:49.962Z,10.00
2023-05-25T16:12:56.917Z,6.60
2023-05-25T16:18:05.220Z,7.60
2023-05-25T16:23:16.107Z,6.30
2023-05-25T16:28:32.775Z,7.60
2023-05-25T16:33:41.769Z,8.00
2023-05-25T16:38:46.957Z,8.00
2023-05-25T16:43:51.406Z,7.20
2023-05-25T16:48:56.572Z,11.20
2023-05-25T16:53:59.811Z,6.80
2023-05-25T16:59:02.893Z,8.80
2023-05-25T17:04:06.885Z,7.00
2023-05-25T17:09:11.950Z,13.50
2023-05-25T17:14:14.743Z,16.30
2023-05-25T17:19:17.288Z,11.20
2023-05-25T17:24:22.891Z,12.40
2023-05-25T17:29:25.806Z,11.20
2023-05-25T17:34:28.789Z,11.20
2023-05-25T17:39:32.435Z,7.50
2023-05-25T17:44:39.952Z,6.40
2023-05-25T17:49:44.795Z,9.50
2023-05-25T17:54:47.507Z,8.60
2023-05-25T17:59:50.173Z,6.80
2023-05-25T18:04:53.542Z,10.20
2023-05-25T18:09:56.324Z,7.70
2023-05-25T18:14:59.291Z,7.70
2023-05-25T18:20:02.110Z,6.90
2023-05-25T18:25:06.064Z,7.20
2023-05-25T18:30:09.692Z,9.00
2023-05-25T18:35:12.072Z,7.60
2023-05-25T18:40:16.286Z,6.90
2023-05-25T18:45:21.162Z,10.00
2023-05-25T18:50:25.118Z,7.00
2023-05-25T18:55:31.289Z,9.20
2023-05-25T19:00:34.580Z,7.00
2023-05-25T19:05:37.358Z,8.60
2023-05-25T19:10:41.284Z,8.30
2023-05-25T19:15:45.139Z,10.40
2023-05-25T19:20:49.335Z,7.40
2023-05-25T19:25:53.180Z,7.70
2023-05-25T19:30:57.630Z,8.00
2023-05-25T19:36:02.201Z,8.80
2023-05-25T19:41:07.864Z,9.20
2023-05-25T19:46:13.571Z,9.70
2023-05-25T19:51:19.833Z,10.20
2023-05-25T19:56:23.217Z,8.10
2023-05-25T20:01:26.980Z,9.40
2023-05-25T20:06:30.317Z,10.40
2023-05-25T20:11:34.532Z,8.60
2023-05-25T20:16:38.589Z,10.20
2023-05-25T20:21:41.747Z,10.40
2023-05-25T20:26:46.106Z,11.20
2023-05-25T20:31:52.686Z,12.40
2023-05-25T20:36:56.942Z,12.50
2023-05-25T20:42:01.809Z,8.00
2023-05-25T20:47:10.092Z,10.60
2023-05-25T20:52:15.307Z,10.30
2023-05-25T20:57:19.874Z,6.90
2023-05-25T21:02:24.495Z,10.20
2023-05-25T21:07:31.366Z,6.00
2023-05-25T21:12:36.073Z,7.80
2023-05-25T21:17:39.517Z,6.40
2023-05-25T21:22:45.472Z,8.60
2023-05-25T21:27:47.468Z,7.00
2023-05-25T21:32:50.431Z,8.60
2023-05-25T21:37:52.995Z,8.50
2023-05-25T21:42:57.215Z,9.40
2023-05-25T21:48:01.596Z,6.00
2023-05-25T21:53:06.425Z,8.20
2023-05-25T21:58:10.552Z,8.40
2023-05-25T22:03:12.851Z,6.20
2023-05-25T22:08:17.138Z,6.80
2023-05-25T22:13:19.754Z,8.50
2023-05-25T22:18:23.229Z,7.50
2023-05-25T22:23:27.152Z,12.00
2023-05-25T22:28:31.502Z,8.00
2023-05-25T22:33:34.880Z,10.70
2023-05-25T22:38:36.874Z,7.80
2023-05-25T22:43:38.660Z,9.30
2023-05-25T22:48:43.677Z,9.70
2023-05-25T22:53:46.581Z,11.10
2023-05-25T22:58:48.859Z,7.00
2023-05-25T23:03:51.263Z,7.00
2023-05-25T23:08:53.615Z,8.20
2023-05-25T23:13:55.933Z,8.60
2023-05-25T23:18:59.667Z,10.20
2023-05-25T23:24:02.622Z,10.60
2023-05-25T23:29:06.104Z,8.70
2023-05-25T23:34:09.073Z,9.00
2023-05-25T23:39:12.862Z,7.30
2023-05-25T23:44:19.371Z,9.30
2023-05-25T23:54:24.501Z,9.60
2023-05-25T23:59:28.054Z,6.90
